Terminal Aerodrome Forecast
Issued by NWS

Current Version | Previous Version | Graphics & Text | Print | Product List | Glossary On
Versions: 1 2 3 4 5 6 7 8 9 10 11 12 13 14 15 16 17 18 19 20 21 22 23 24 25 26
000
FTUS41 KILN 042352
TAFLUK
TAF
KLUK 042352Z 0500/0524 09006KT 4SM -RA BR OVC022
      TEMPO 0500/0502 1 1/2SM -RA BR OVC011
     FM050200 17006KT 4SM -RA BR OVC008
     FM050400 27008KT P6SM OVC008
     FM051400 20004KT P6SM BKN015
     FM051700 13004KT P6SM SCT015 BKN200
     FM052100 08008KT P6SM BKN250=

USA.gov is the U.S. government's official web portal to all federal, state and local government web resources and services.